Time;durP1;ratioP1;P1;durP2;ratioP2;P2;SDS_P1;SDS_P2;PMS_P1;PMS_P2;Temp;Humidity;BMP_temperature;BMP_pressure;BME280_temperature;BME280_humidity;BME280_pressure;Samples;Min_cycle;Max_cycle;Signal;HPM_P1;HPM_P2
2021/08/26 00:00:14;;;;;;;2.67;1.25;;;;;;;;;;5029246;28;20520;-77
2021/08/26 00:08:18;;;;;;;0.82;0.80;;;;;;;;;;5026479;28;20115;-77
2021/08/26 00:10:45;;;;;;;0.80;0.80;;;;;;;;;;5011382;28;20049;-77
2021/08/26 00:13:13;;;;;;;0.77;0.77;;;;;;;;;;4995561;28;20386;-77
2021/08/26 00:15:41;;;;;;;1.58;0.90;;;;;;;;;;5005232;28;20095;-77
2021/08/26 00:18:08;;;;;;;1.60;0.80;;;;;;;;;;5028351;28;20065;-77
2021/08/26 00:20:35;;;;;;;1.80;0.80;;;;;;;;;;5027162;28;20089;-77
2021/08/26 00:23:02;;;;;;;0.75;0.75;;;;;;;;;;5026659;28;20060;-77
2021/08/26 00:25:28;;;;;;;1.05;0.85;;;;;;;;;;5027913;28;20894;-77
2021/08/26 00:27:55;;;;;;;1.02;1.02;;;;;;;;;;5010638;28;20037;-77
2021/08/26 00:30:22;;;;;;;0.90;0.90;;;;;;;;;;5027820;28;20120;-77
2021/08/26 00:32:48;;;;;;;0.80;0.80;;;;;;;;;;5005147;28;20096;-77
2021/08/26 00:35:15;;;;;;;0.80;0.80;;;;;;;;;;5020211;28;20567;-77
2021/08/26 00:37:42;;;;;;;0.80;0.80;;;;;;;;;;5027130;28;20053;-77
2021/08/26 00:40:10;;;;;;;0.80;0.80;;;;;;;;;;5008770;28;20521;-77
2021/08/26 00:42:39;;;;;;;0.93;0.93;;;;;;;;;;5011694;28;20057;-77
2021/08/26 00:45:06;;;;;;;3.42;0.80;;;;;;;;;;5016013;28;20049;-77
2021/08/26 00:47:33;;;;;;;1.00;0.80;;;;;;;;;;5028420;28;20041;-77
2021/08/26 00:50:00;;;;;;;0.82;0.82;;;;;;;;;;5029534;28;20038;-77
2021/08/26 00:52:27;;;;;;;5.30;0.90;;;;;;;;;;5028355;28;20446;-77
2021/08/26 00:54:54;;;;;;;1.98;0.80;;;;;;;;;;5028718;28;20409;-77
2021/08/26 00:57:24;;;;;;;0.80;0.80;;;;;;;;;;5029951;28;20073;-77
2021/08/26 00:59:52;;;;;;;0.90;0.90;;;;;;;;;;5059600;28;20091;-77
2021/08/26 01:02:38;;;;;;;0.70;0.70;;;;;;;;;;5018080;28;20053;-77
2021/08/26 01:05:31;;;;;;;1.48;0.93;;;;;;;;;;5035624;28;20041;-77
2021/08/26 01:07:58;;;;;;;1.25;0.90;;;;;;;;;;5011952;28;20038;-77
2021/08/26 01:10:25;;;;;;;0.80;0.80;;;;;;;;;;5029942;28;20041;-77
2021/08/26 01:12:56;;;;;;;0.95;0.88;;;;;;;;;;5028939;28;20041;-77
2021/08/26 01:15:23;;;;;;;0.80;0.80;;;;;;;;;;5028512;28;20033;-77
2021/08/26 01:17:50;;;;;;;1.45;1.00;;;;;;;;;;5025034;28;20045;-77
2021/08/26 01:20:17;;;;;;;3.30;1.10;;;;;;;;;;5027752;28;20037;-77
2021/08/26 01:22:44;;;;;;;0.90;0.90;;;;;;;;;;4999191;28;20045;-77
2021/08/26 01:25:13;;;;;;;0.88;0.88;;;;;;;;;;5025596;28;20046;-77
2021/08/26 01:27:46;;;;;;;2.05;0.80;;;;;;;;;;5034716;28;20036;-76
2021/08/26 01:30:15;;;;;;;3.25;1.00;;;;;;;;;;5012907;28;20046;-76
2021/08/26 01:32:42;;;;;;;1.67;1.00;;;;;;;;;;5022077;28;20049;-76
2021/08/26 01:35:10;;;;;;;2.53;0.98;;;;;;;;;;5015488;28;20038;-76
2021/08/26 01:37:38;;;;;;;1.83;0.80;;;;;;;;;;5027921;28;20045;-76
2021/08/26 01:40:06;;;;;;;2.17;1.00;;;;;;;;;;5027887;28;20449;-76
2021/08/26 01:42:34;;;;;;;1.35;0.90;;;;;;;;;;5028097;28;20034;-76
2021/08/26 01:45:01;;;;;;;0.90;0.90;;;;;;;;;;5038686;28;20070;-76
2021/08/26 01:47:27;;;;;;;2.58;1.00;;;;;;;;;;5016577;28;20045;-76
2021/08/26 01:49:54;;;;;;;0.90;0.90;;;;;;;;;;5016567;28;20065;-76
2021/08/26 01:52:22;;;;;;;0.90;0.90;;;;;;;;;;5022050;28;20046;-76
2021/08/26 01:54:56;;;;;;;1.20;0.90;;;;;;;;;;5009838;28;20573;-76
2021/08/26 01:57:23;;;;;;;0.85;0.85;;;;;;;;;;5026712;28;20092;-76
2021/08/26 01:59:50;;;;;;;1.35;1.35;;;;;;;;;;5029133;28;20049;-76
2021/08/26 02:02:17;;;;;;;0.95;0.95;;;;;;;;;;5027714;28;20041;-76
2021/08/26 02:04:44;;;;;;;1.00;1.00;;;;;;;;;;5025027;28;20045;-76
2021/08/26 02:07:11;;;;;;;1.00;0.90;;;;;;;;;;5010446;28;20053;-76
2021/08/26 02:09:38;;;;;;;1.25;1.00;;;;;;;;;;5027718;28;20578;-76
2021/08/26 02:12:05;;;;;;;0.90;0.90;;;;;;;;;;5028905;28;20045;-76
2021/08/26 02:14:31;;;;;;;1.45;1.45;;;;;;;;;;5027994;28;20565;-76
2021/08/26 02:16:58;;;;;;;0.80;0.80;;;;;;;;;;5028351;28;20041;-76
2021/08/26 02:19:25;;;;;;;1.00;1.00;;;;;;;;;;5027717;28;20099;-76
2021/08/26 02:21:52;;;;;;;0.90;0.90;;;;;;;;;;5013674;28;20153;-77
2021/08/26 02:24:18;;;;;;;1.30;0.90;;;;;;;;;;5031239;28;20540;-77
2021/08/26 02:26:45;;;;;;;1.38;1.00;;;;;;;;;;5031869;28;20424;-77
2021/08/26 02:29:11;;;;;;;1.27;0.90;;;;;;;;;;5030500;28;20045;-77
2021/08/26 02:31:38;;;;;;;0.80;0.80;;;;;;;;;;5064993;28;20036;-77
2021/08/26 02:34:05;;;;;;;1.10;1.00;;;;;;;;;;5031623;28;20038;-77
2021/08/26 02:36:31;;;;;;;1.35;0.90;;;;;;;;;;5046882;28;20065;-77
2021/08/26 02:38:58;;;;;;;3.33;0.90;;;;;;;;;;5026309;28;20107;-77
2021/08/26 02:41:25;;;;;;;0.90;0.90;;;;;;;;;;5041833;28;20034;-77
2021/08/26 02:43:52;;;;;;;1.10;0.95;;;;;;;;;;5047453;28;20091;-77
2021/08/26 02:46:19;;;;;;;2.05;1.00;;;;;;;;;;5031399;28;20048;-77
2021/08/26 02:48:45;;;;;;;1.10;0.90;;;;;;;;;;5030793;28;20541;-77
2021/08/26 02:51:12;;;;;;;3.80;1.17;;;;;;;;;;5031015;28;20561;-76
2021/08/26 02:53:39;;;;;;;1.85;0.98;;;;;;;;;;5015178;28;20038;-76
2021/08/26 02:56:06;;;;;;;1.15;1.10;;;;;;;;;;5031132;28;20052;-76
2021/08/26 02:58:32;;;;;;;1.00;1.00;;;;;;;;;;5031086;28;20129;-76
2021/08/26 03:00:59;;;;;;;1.10;0.90;;;;;;;;;;5029484;28;20128;-76
2021/08/26 03:03:26;;;;;;;1.60;1.10;;;;;;;;;;5031667;28;20434;-76
2021/08/26 03:05:53;;;;;;;2.30;1.02;;;;;;;;;;5032112;28;20057;-76
2021/08/26 03:08:19;;;;;;;1.75;0.90;;;;;;;;;;5021566;28;20549;-76
2021/08/26 03:10:46;;;;;;;0.90;0.90;;;;;;;;;;5019529;28;20038;-76
2021/08/26 03:13:13;;;;;;;1.15;0.90;;;;;;;;;;5027345;28;20052;-76
2021/08/26 03:15:40;;;;;;;0.80;0.80;;;;;;;;;;5029912;28;20045;-76
2021/08/26 03:18:07;;;;;;;0.90;0.90;;;;;;;;;;5023291;28;20046;-76
2021/08/26 03:20:34;;;;;;;0.90;0.90;;;;;;;;;;5044010;28;20054;-76
2021/08/26 03:23:01;;;;;;;1.50;0.90;;;;;;;;;;5028488;28;20048;-76
2021/08/26 03:25:27;;;;;;;1.67;0.90;;;;;;;;;;5027098;28;20038;-76
2021/08/26 03:27:54;;;;;;;0.90;0.90;;;;;;;;;;5029567;28;20088;-76
2021/08/26 03:30:21;;;;;;;1.80;0.95;;;;;;;;;;5031359;28;20064;-76
2021/08/26 03:32:48;;;;;;;1.00;0.98;;;;;;;;;;5046178;28;20091;-76
2021/08/26 03:35:15;;;;;;;0.90;0.90;;;;;;;;;;5015038;28;20078;-76
2021/08/26 03:37:42;;;;;;;0.90;0.90;;;;;;;;;;5039645;28;20081;-76
2021/08/26 03:40:10;;;;;;;1.10;1.00;;;;;;;;;;5036730;28;20045;-76
2021/08/26 03:42:37;;;;;;;1.02;0.90;;;;;;;;;;5030931;28;20033;-76
2021/08/26 03:45:04;;;;;;;1.48;1.10;;;;;;;;;;5028562;28;20041;-76
2021/08/26 03:47:31;;;;;;;1.00;1.00;;;;;;;;;;5031333;28;20045;-76
2021/08/26 03:49:58;;;;;;;2.28;1.10;;;;;;;;;;5029567;28;20068;-76
2021/08/26 03:52:25;;;;;;;3.00;0.90;;;;;;;;;;5062386;28;20041;-76
2021/08/26 03:54:52;;;;;;;3.13;1.00;;;;;;;;;;5029855;28;20064;-76
2021/08/26 03:57:18;;;;;;;2.15;0.95;;;;;;;;;;5061153;28;20064;-76
2021/08/26 03:59:46;;;;;;;2.60;1.00;;;;;;;;;;5016931;28;20075;-76
2021/08/26 04:02:12;;;;;;;1.00;1.00;;;;;;;;;;5029508;28;20084;-76
2021/08/26 04:04:39;;;;;;;1.00;0.90;;;;;;;;;;5029275;28;20065;-76
2021/08/26 04:07:06;;;;;;;1.13;0.90;;;;;;;;;;5045908;28;20107;-76
2021/08/26 04:09:33;;;;;;;1.00;1.00;;;;;;;;;;5029935;28;20420;-76
2021/08/26 04:12:00;;;;;;;2.78;1.08;;;;;;;;;;5020794;28;20088;-76
2021/08/26 04:14:27;;;;;;;0.90;0.90;;;;;;;;;;5028012;28;20044;-76
2021/08/26 04:16:54;;;;;;;2.83;1.00;;;;;;;;;;5030251;28;20095;-76
2021/08/26 04:19:20;;;;;;;0.95;0.95;;;;;;;;;;5025532;28;20045;-76
2021/08/26 04:21:47;;;;;;;1.02;1.00;;;;;;;;;;5027880;28;20037;-76
2021/08/26 04:24:14;;;;;;;4.25;1.10;;;;;;;;;;5029572;28;20064;-76
2021/08/26 04:26:41;;;;;;;1.38;0.90;;;;;;;;;;5022793;28;20077;-76
2021/08/26 04:29:08;;;;;;;0.80;0.80;;;;;;;;;;5030430;28;20033;-76
2021/08/26 04:31:35;;;;;;;0.90;0.90;;;;;;;;;;5024883;28;20812;-76
2021/08/26 04:34:02;;;;;;;1.23;1.00;;;;;;;;;;5026230;28;20493;-76
2021/08/26 04:36:29;;;;;;;1.77;1.00;;;;;;;;;;5029789;28;20048;-76
2021/08/26 04:38:56;;;;;;;2.05;0.90;;;;;;;;;;5013366;28;20046;-76
2021/08/26 04:41:22;;;;;;;1.10;1.10;;;;;;;;;;5028559;28;20087;-76
2021/08/26 04:43:49;;;;;;;4.90;1.10;;;;;;;;;;5027437;28;20116;-76
2021/08/26 04:46:16;;;;;;;1.02;0.90;;;;;;;;;;5028087;28;20597;-76
2021/08/26 04:48:42;;;;;;;1.08;1.08;;;;;;;;;;5011977;28;20606;-78
2021/08/26 04:51:09;;;;;;;0.90;0.90;;;;;;;;;;5010727;28;20076;-78
2021/08/26 04:53:36;;;;;;;0.90;0.90;;;;;;;;;;5020987;28;20041;-78
2021/08/26 04:56:02;;;;;;;3.13;0.90;;;;;;;;;;5029448;28;20045;-78
2021/08/26 04:58:29;;;;;;;3.13;1.00;;;;;;;;;;5029564;28;20077;-78
2021/08/26 05:00:56;;;;;;;1.35;1.02;;;;;;;;;;5025716;28;20072;-78
2021/08/26 05:03:23;;;;;;;1.52;0.88;;;;;;;;;;5061460;28;20532;-78
2021/08/26 05:05:50;;;;;;;1.88;0.88;;;;;;;;;;5028679;28;20091;-78
2021/08/26 05:08:17;;;;;;;1.20;0.90;;;;;;;;;;5012979;28;20041;-78
2021/08/26 05:10:44;;;;;;;1.20;0.90;;;;;;;;;;5059091;28;20536;-79
2021/08/26 05:13:10;;;;;;;0.88;0.88;;;;;;;;;;5027740;28;20497;-79
2021/08/26 05:15:37;;;;;;;1.25;1.10;;;;;;;;;;5013064;28;20053;-79
2021/08/26 05:18:05;;;;;;;2.13;0.93;;;;;;;;;;5060608;28;20702;-79
2021/08/26 05:20:32;;;;;;;1.65;0.90;;;;;;;;;;5029645;28;20037;-79
2021/08/26 05:22:58;;;;;;;3.22;0.93;;;;;;;;;;5040617;28;20045;-79
2021/08/26 05:25:25;;;;;;;1.02;1.00;;;;;;;;;;5029751;28;20065;-83
2021/08/26 05:27:52;;;;;;;1.08;1.00;;;;;;;;;;5028849;28;20034;-83
2021/08/26 05:30:20;;;;;;;2.42;1.20;;;;;;;;;;5060181;28;20038;-83
2021/08/26 05:32:46;;;;;;;1.30;1.10;;;;;;;;;;5059865;28;20144;-83
2021/08/26 05:35:13;;;;;;;3.70;1.23;;;;;;;;;;5029584;28;20421;-83
2021/08/26 05:37:40;;;;;;;1.52;1.00;;;;;;;;;;5029709;28;20072;-83
2021/08/26 05:40:07;;;;;;;2.47;0.90;;;;;;;;;;5029645;28;20145;-83
2021/08/26 05:42:34;;;;;;;3.95;1.42;;;;;;;;;;5040249;28;20631;-83
2021/08/26 05:45:01;;;;;;;1.25;1.02;;;;;;;;;;5027483;28;20034;-83
2021/08/26 05:47:27;;;;;;;2.08;1.10;;;;;;;;;;5011701;28;20077;-83
2021/08/26 05:49:54;;;;;;;1.20;1.10;;;;;;;;;;5027115;28;20049;-83
2021/08/26 05:52:21;;;;;;;0.98;0.98;;;;;;;;;;5012631;28;20033;-83
2021/08/26 05:54:47;;;;;;;1.15;0.90;;;;;;;;;;5028216;28;20567;-83
2021/08/26 05:57:14;;;;;;;0.82;0.82;;;;;;;;;;5058107;28;20042;-83
2021/08/26 05:59:41;;;;;;;1.20;1.10;;;;;;;;;;5030323;28;20033;-83
2021/08/26 06:02:08;;;;;;;1.80;1.00;;;;;;;;;;5025240;28;20053;-83
2021/08/26 06:04:35;;;;;;;1.00;0.90;;;;;;;;;;5032883;28;20137;-83
2021/08/26 06:07:02;;;;;;;1.85;0.90;;;;;;;;;;5030789;28;20096;-83
2021/08/26 06:09:29;;;;;;;1.00;1.00;;;;;;;;;;5032166;28;20351;-83
2021/08/26 06:11:55;;;;;;;5.25;1.00;;;;;;;;;;5055224;28;20044;-83
2021/08/26 06:14:22;;;;;;;0.80;0.80;;;;;;;;;;5026185;28;20053;-83
2021/08/26 06:16:49;;;;;;;1.92;0.80;;;;;;;;;;5049181;28;20389;-83
2021/08/26 06:19:15;;;;;;;1.27;0.82;;;;;;;;;;5029586;28;20045;-83
2021/08/26 06:21:42;;;;;;;0.80;0.80;;;;;;;;;;5031113;28;20041;-83
2021/08/26 06:24:09;;;;;;;0.73;0.73;;;;;;;;;;5033584;28;20148;-83
2021/08/26 06:26:37;;;;;;;2.13;0.90;;;;;;;;;;5033285;28;20064;-83
2021/08/26 06:29:04;;;;;;;0.77;0.77;;;;;;;;;;5032117;28;20132;-83
2021/08/26 06:31:31;;;;;;;0.70;0.70;;;;;;;;;;5061962;28;20520;-83
2021/08/26 06:33:57;;;;;;;1.00;0.80;;;;;;;;;;5032046;28;20525;-83
2021/08/26 06:36:24;;;;;;;0.80;0.80;;;;;;;;;;5033870;28;20536;-83
2021/08/26 06:38:51;;;;;;;0.80;0.80;;;;;;;;;;5031305;28;20056;-83
2021/08/26 06:41:18;;;;;;;0.80;0.80;;;;;;;;;;5027707;28;20052;-83
2021/08/26 06:43:45;;;;;;;0.80;0.80;;;;;;;;;;5039894;28;20045;-83
2021/08/26 06:46:12;;;;;;;0.80;0.80;;;;;;;;;;5022265;28;20148;-83
2021/08/26 06:48:39;;;;;;;3.28;0.73;;;;;;;;;;5031844;28;20580;-83
2021/08/26 06:51:06;;;;;;;0.98;0.70;;;;;;;;;;5032540;28;20044;-84
2021/08/26 06:53:32;;;;;;;1.65;0.75;;;;;;;;;;5031820;28;20037;-84
2021/08/26 06:55:59;;;;;;;0.60;0.60;;;;;;;;;;5023535;28;20470;-84
2021/08/26 06:58:26;;;;;;;1.08;0.60;;;;;;;;;;5022790;28;20049;-81
2021/08/26 07:00:53;;;;;;;0.60;0.60;;;;;;;;;;5026156;28;20048;-81
2021/08/26 07:03:19;;;;;;;0.80;0.80;;;;;;;;;;5030490;28;20033;-81
2021/08/26 07:05:46;;;;;;;0.60;0.60;;;;;;;;;;5030064;28;20053;-81
2021/08/26 07:08:13;;;;;;;1.30;0.55;;;;;;;;;;5021237;28;20402;-81
2021/08/26 07:10:40;;;;;;;0.65;0.65;;;;;;;;;;5054080;28;20052;-81
2021/08/26 07:13:06;;;;;;;0.60;0.60;;;;;;;;;;5032653;28;20060;-83
2021/08/26 07:15:33;;;;;;;0.60;0.60;;;;;;;;;;5029762;28;20049;-84
2021/08/26 07:18:00;;;;;;;0.60;0.60;;;;;;;;;;5060951;28;20056;-84
2021/08/26 07:20:27;;;;;;;0.60;0.60;;;;;;;;;;5030931;28;20045;-84
2021/08/26 07:22:54;;;;;;;1.30;0.60;;;;;;;;;;5061072;28;20045;-84
2021/08/26 07:25:22;;;;;;;0.50;0.50;;;;;;;;;;5047089;28;20486;-84
2021/08/26 07:27:50;;;;;;;0.60;0.60;;;;;;;;;;5026862;28;20044;-82
2021/08/26 07:30:17;;;;;;;0.60;0.60;;;;;;;;;;5041007;28;20087;-82
2021/08/26 07:32:44;;;;;;;0.50;0.50;;;;;;;;;;5023748;28;20124;-82
2021/08/26 07:35:11;;;;;;;0.60;0.60;;;;;;;;;;5054749;28;20387;-82
2021/08/26 07:37:37;;;;;;;1.98;0.60;;;;;;;;;;5013573;28;20124;-82
2021/08/26 07:40:04;;;;;;;0.60;0.60;;;;;;;;;;5029408;28;20084;-82
2021/08/26 07:42:31;;;;;;;0.50;0.50;;;;;;;;;;5031237;28;20056;-81
2021/08/26 07:45:02;;;;;;;0.50;0.50;;;;;;;;;;5022553;28;20036;-82
2021/08/26 07:47:30;;;;;;;1.00;0.55;;;;;;;;;;5028351;28;20068;-82
2021/08/26 07:50:00;;;;;;;0.50;0.50;;;;;;;;;;5030209;28;20049;-82
2021/08/26 07:52:27;;;;;;;0.65;0.60;;;;;;;;;;5031055;28;20053;-82
2021/08/26 07:54:54;;;;;;;0.50;0.50;;;;;;;;;;5030627;28;20045;-82
2021/08/26 07:57:20;;;;;;;0.57;0.57;;;;;;;;;;5029948;28;20488;-82
2021/08/26 07:59:47;;;;;;;0.52;0.52;;;;;;;;;;5030434;28;20063;-82
2021/08/26 08:02:14;;;;;;;0.50;0.50;;;;;;;;;;5031084;28;20042;-82
2021/08/26 08:04:41;;;;;;;0.50;0.50;;;;;;;;;;5030756;28;20457;-82
2021/08/26 08:07:08;;;;;;;0.50;0.50;;;;;;;;;;5031457;28;20041;-82
2021/08/26 08:09:34;;;;;;;0.50;0.50;;;;;;;;;;5031273;28;20099;-82
2021/08/26 08:12:02;;;;;;;0.50;0.50;;;;;;;;;;5030333;28;20037;-82
2021/08/26 08:14:29;;;;;;;0.43;0.43;;;;;;;;;;5012815;28;20103;-82
2021/08/26 08:16:56;;;;;;;0.50;0.50;;;;;;;;;;5030611;28;20444;-82
2021/08/26 08:19:23;;;;;;;0.77;0.60;;;;;;;;;;5026518;28;20063;-82
2021/08/26 08:21:50;;;;;;;0.52;0.52;;;;;;;;;;5031034;28;20128;-82
2021/08/26 08:24:17;;;;;;;0.40;0.40;;;;;;;;;;5029577;28;20095;-82
2021/08/26 08:26:43;;;;;;;0.50;0.50;;;;;;;;;;5030463;28;20095;-82
2021/08/26 08:29:11;;;;;;;0.40;0.40;;;;;;;;;;5028652;28;20099;-82
2021/08/26 08:31:37;;;;;;;0.40;0.40;;;;;;;;;;5031072;28;20038;-82
2021/08/26 08:34:04;;;;;;;0.50;0.50;;;;;;;;;;5010222;28;20153;-81
2021/08/26 08:36:31;;;;;;;0.50;0.50;;;;;;;;;;5029853;28;20052;-82
2021/08/26 08:38:58;;;;;;;0.40;0.40;;;;;;;;;;5027560;28;20087;-82
2021/08/26 08:41:25;;;;;;;0.40;0.40;;;;;;;;;;5030670;28;20481;-81
2021/08/26 08:43:52;;;;;;;0.50;0.50;;;;;;;;;;5028462;28;20041;-81
2021/08/26 08:46:20;;;;;;;2.88;0.40;;;;;;;;;;5019042;28;20033;-81
2021/08/26 08:48:47;;;;;;;0.40;0.40;;;;;;;;;;5024218;28;20034;-82
2021/08/26 08:51:14;;;;;;;0.40;0.40;;;;;;;;;;5018601;28;20083;-82
2021/08/26 08:53:41;;;;;;;1.45;0.40;;;;;;;;;;5025475;28;20494;-82
2021/08/26 08:56:08;;;;;;;1.50;0.43;;;;;;;;;;5024167;28;20033;-82
2021/08/26 08:58:38;;;;;;;0.40;0.40;;;;;;;;;;5028211;28;20477;-82
2021/08/26 09:01:05;;;;;;;0.40;0.40;;;;;;;;;;5025260;28;20041;-82
2021/08/26 09:03:35;;;;;;;0.40;0.40;;;;;;;;;;5028042;28;20030;-82
2021/08/26 09:06:02;;;;;;;0.30;0.30;;;;;;;;;;5028878;28;20054;-82
2021/08/26 09:08:30;;;;;;;0.35;0.35;;;;;;;;;;5025856;28;20116;-82
2021/08/26 09:11:09;;;;;;;0.80;0.30;;;;;;;;;;5014631;28;20405;-82
2021/08/26 09:13:36;;;;;;;0.30;0.30;;;;;;;;;;5029266;28;20579;-82
2021/08/26 09:16:03;;;;;;;0.80;0.30;;;;;;;;;;5028503;28;20116;-82
2021/08/26 09:18:30;;;;;;;0.30;0.30;;;;;;;;;;5027999;28;20042;-82
2021/08/26 09:20:58;;;;;;;1.67;0.30;;;;;;;;;;5026922;28;20037;-81
2021/08/26 09:23:26;;;;;;;0.30;0.30;;;;;;;;;;5029238;28;20081;-81
2021/08/26 09:25:54;;;;;;;0.30;0.30;;;;;;;;;;5028838;28;20461;-81
2021/08/26 09:28:39;;;;;;;0.30;0.30;;;;;;;;;;5028969;28;20041;-82
2021/08/26 09:31:10;;;;;;;0.73;0.30;;;;;;;;;;5022365;28;20037;-82
2021/08/26 09:33:51;;;;;;;0.30;0.30;;;;;;;;;;5023141;28;20026;-81
2021/08/26 09:36:27;;;;;;;0.93;0.30;;;;;;;;;;5023980;28;20057;-82
2021/08/26 09:38:55;;;;;;;0.38;0.30;;;;;;;;;;5028214;28;20041;-82
2021/08/26 09:41:40;;;;;;;0.20;0.20;;;;;;;;;;5029222;28;20049;-82
2021/08/26 09:44:11;;;;;;;0.80;0.20;;;;;;;;;;5027418;28;20481;-82
2021/08/26 09:46:38;;;;;;;0.30;0.30;;;;;;;;;;5026119;28;20448;-82
2021/08/26 09:49:09;;;;;;;0.85;0.40;;;;;;;;;;5023463;28;20064;-82
2021/08/26 09:51:35;;;;;;;0.20;0.20;;;;;;;;;;5018590;28;20037;-82
2021/08/26 09:54:03;;;;;;;0.60;0.22;;;;;;;;;;5028334;28;20041;-82
2021/08/26 09:56:39;;;;;;;0.30;0.30;;;;;;;;;;5043147;28;20460;-82
2021/08/26 09:59:06;;;;;;;0.30;0.30;;;;;;;;;;5023080;28;20172;-82
2021/08/26 10:01:38;;;;;;;0.35;0.30;;;;;;;;;;5043573;28;20056;-82
2021/08/26 10:04:28;;;;;;;0.77;0.30;;;;;;;;;;5024198;28;20113;-82
2021/08/26 10:06:55;;;;;;;5.25;0.30;;;;;;;;;;5009338;28;20296;-82
2021/08/26 10:09:22;;;;;;;0.25;0.25;;;;;;;;;;5023657;28;20043;-82
2021/08/26 10:11:49;;;;;;;0.28;0.28;;;;;;;;;;5026582;28;20046;-82
2021/08/26 10:14:15;;;;;;;0.82;0.20;;;;;;;;;;5027121;28;20056;-82
2021/08/26 10:16:42;;;;;;;0.22;0.22;;;;;;;;;;5025791;28;20133;-82
2021/08/26 10:19:12;;;;;;;0.20;0.20;;;;;;;;;;5025761;28;20049;-82
2021/08/26 10:21:38;;;;;;;0.20;0.20;;;;;;;;;;5041623;28;20041;-82
2021/08/26 10:24:05;;;;;;;0.20;0.20;;;;;;;;;;5025118;28;20032;-82
2021/08/26 10:26:32;;;;;;;0.20;0.20;;;;;;;;;;5042247;28;20041;-82
2021/08/26 10:28:59;;;;;;;0.70;0.20;;;;;;;;;;5025236;28;20038;-82
2021/08/26 10:31:30;;;;;;;1.10;0.30;;;;;;;;;;5041362;28;20072;-82
2021/08/26 10:34:26;;;;;;;0.28;0.25;;;;;;;;;;5022911;28;20040;-82
2021/08/26 10:36:56;;;;;;;0.20;0.20;;;;;;;;;;4997118;28;20057;-82
2021/08/26 10:39:27;;;;;;;1.25;0.20;;;;;;;;;;4999534;28;20549;-82
2021/08/26 10:41:55;;;;;;;0.20;0.20;;;;;;;;;;5005071;28;20197;-82
2021/08/26 10:44:22;;;;;;;0.20;0.20;;;;;;;;;;5003818;28;20535;-82
2021/08/26 10:46:53;;;;;;;0.30;0.30;;;;;;;;;;5009279;28;20148;-82
2021/08/26 10:49:20;;;;;;;0.20;0.20;;;;;;;;;;5003207;28;20518;-81
2021/08/26 10:51:48;;;;;;;0.20;0.20;;;;;;;;;;4992922;28;20046;-81
2021/08/26 10:54:34;;;;;;;0.20;0.20;;;;;;;;;;4989467;28;20481;-81
2021/08/26 10:57:24;;;;;;;0.88;0.30;;;;;;;;;;5002483;28;20521;-81
2021/08/26 10:59:51;;;;;;;0.20;0.20;;;;;;;;;;5001386;28;20104;-81
2021/08/26 11:02:44;;;;;;;0.20;0.20;;;;;;;;;;4990923;28;20425;-81
2021/08/26 11:05:30;;;;;;;0.52;0.20;;;;;;;;;;4986855;28;20057;-81
2021/08/26 11:07:57;;;;;;;0.20;0.20;;;;;;;;;;4999706;28;20046;-81
2021/08/26 11:10:28;;;;;;;0.20;0.20;;;;;;;;;;5014660;28;20080;-81
2021/08/26 11:13:13;;;;;;;0.95;0.20;;;;;;;;;;5008809;28;20053;-81
2021/08/26 11:15:41;;;;;;;0.20;0.20;;;;;;;;;;5037976;28;20113;-81
2021/08/26 11:18:30;;;;;;;0.20;0.20;;;;;;;;;;5037602;28;20057;-81
2021/08/26 11:20:58;;;;;;;1.17;0.20;;;;;;;;;;5020211;28;20103;-81
2021/08/26 11:23:45;;;;;;;0.20;0.20;;;;;;;;;;5039722;28;20049;-81
2021/08/26 11:26:30;;;;;;;0.55;0.20;;;;;;;;;;5067592;28;20050;-81
2021/08/26 11:29:17;;;;;;;0.55;0.20;;;;;;;;;;5038221;28;20045;-81
2021/08/26 11:31:44;;;;;;;0.40;0.20;;;;;;;;;;5033185;28;20481;-81
2021/08/26 11:34:12;;;;;;;0.20;0.20;;;;;;;;;;5032554;28;20094;-81
2021/08/26 11:36:39;;;;;;;0.22;0.22;;;;;;;;;;5032810;28;20041;-81
2021/08/26 11:39:06;;;;;;;0.20;0.20;;;;;;;;;;5041801;28;20050;-77
2021/08/26 11:41:32;;;;;;;0.20;0.20;;;;;;;;;;5024764;28;20068;-77
2021/08/26 11:43:59;;;;;;;0.35;0.20;;;;;;;;;;5028654;28;20042;-77
2021/08/26 11:46:27;;;;;;;0.20;0.20;;;;;;;;;;5027678;28;20037;-77
2021/08/26 11:48:55;;;;;;;0.70;0.20;;;;;;;;;;5029431;28;20529;-77
2021/08/26 11:51:28;;;;;;;0.20;0.20;;;;;;;;;;5059765;28;20041;-77
2021/08/26 11:53:54;;;;;;;;;;;;;;;;;;5028591;28;20057;-77
2021/08/26 11:56:21;;;;;;;0.30;0.30;;;;;;;;;;5029986;28;20419;-77
2021/08/26 11:58:48;;;;;;;0.30;0.30;;;;;;;;;;5024310;28;20124;-77
2021/08/26 12:01:21;;;;;;;0.30;0.30;;;;;;;;;;5026373;28;20052;-77
2021/08/26 12:03:52;;;;;;;1.85;0.30;;;;;;;;;;5024254;28;20186;-77
2021/08/26 12:06:19;;;;;;;0.30;0.30;;;;;;;;;;5019553;28;20466;-77
2021/08/26 12:08:47;;;;;;;0.35;0.20;;;;;;;;;;5028822;28;20037;-77
2021/08/26 12:11:23;;;;;;;0.20;0.20;;;;;;;;;;5027195;28;20556;-77
2021/08/26 12:13:49;;;;;;;0.73;0.20;;;;;;;;;;5026564;28;20436;-77
2021/08/26 12:16:34;;;;;;;0.20;0.20;;;;;;;;;;5028722;28;20051;-77
2021/08/26 12:19:03;;;;;;;0.30;0.30;;;;;;;;;;5026440;28;20052;-77
2021/08/26 12:21:30;;;;;;;0.30;0.30;;;;;;;;;;5026647;28;20037;-77
2021/08/26 12:23:56;;;;;;;0.30;0.30;;;;;;;;;;5026934;28;20037;-77
2021/08/26 12:26:23;;;;;;;0.22;0.22;;;;;;;;;;5023901;28;20695;-80
2021/08/26 12:29:08;;;;;;;0.30;0.30;;;;;;;;;;5010067;28;20697;-81
2021/08/26 12:31:37;;;;;;;0.38;0.30;;;;;;;;;;5023154;28;20046;-77
2021/08/26 12:34:08;;;;;;;0.25;0.25;;;;;;;;;;5015343;28;20046;-76
2021/08/26 12:36:37;;;;;;;0.30;0.30;;;;;;;;;;5057346;28;20045;-76
2021/08/26 12:39:22;;;;;;;0.30;0.30;;;;;;;;;;5020515;28;20064;-76
2021/08/26 12:42:16;;;;;;;0.30;0.30;;;;;;;;;;5021220;28;20041;-77
2021/08/26 12:44:43;;;;;;;0.30;0.30;;;;;;;;;;5025031;28;20421;-76
2021/08/26 12:47:12;;;;;;;0.30;0.30;;;;;;;;;;5041547;28;20049;-76
2021/08/26 12:49:40;;;;;;;0.20;0.20;;;;;;;;;;5060704;28;20037;-76
2021/08/26 12:52:07;;;;;;;0.30;0.30;;;;;;;;;;5026996;28;20441;-76
2021/08/26 12:54:40;;;;;;;0.20;0.20;;;;;;;;;;5026523;28;20515;-76
2021/08/26 12:57:17;;;;;;;1.27;0.30;;;;;;;;;;5024199;28;20052;-76
2021/08/26 12:59:44;;;;;;;0.30;0.30;;;;;;;;;;5025567;28;20046;-76
2021/08/26 13:02:12;;;;;;;0.30;0.30;;;;;;;;;;5059055;28;20071;-76
2021/08/26 13:04:39;;;;;;;0.40;0.30;;;;;;;;;;5027691;28;20040;-76
2021/08/26 13:07:19;;;;;;;1.08;0.20;;;;;;;;;;5056068;28;20037;-76
2021/08/26 13:10:05;;;;;;;0.30;0.30;;;;;;;;;;5028232;28;20444;-76
2021/08/26 13:12:32;;;;;;;0.77;0.30;;;;;;;;;;5029455;28;20410;-76
2021/08/26 13:14:59;;;;;;;1.95;0.25;;;;;;;;;;5019810;28;20073;-76
2021/08/26 13:17:26;;;;;;;0.20;0.20;;;;;;;;;;5028231;28;20068;-76
2021/08/26 13:19:54;;;;;;;0.28;0.28;;;;;;;;;;5055810;28;20057;-76
2021/08/26 13:22:28;;;;;;;0.28;0.28;;;;;;;;;;5057683;28;20376;-76
2021/08/26 13:24:56;;;;;;;0.30;0.30;;;;;;;;;;5028803;28;20107;-76
2021/08/26 13:27:24;;;;;;;0.20;0.20;;;;;;;;;;5023983;28;20688;-76
2021/08/26 13:29:51;;;;;;;0.30;0.30;;;;;;;;;;5028883;28;20098;-76
2021/08/26 13:32:18;;;;;;;1.58;0.30;;;;;;;;;;5023830;28;20049;-76
2021/08/26 13:34:45;;;;;;;0.30;0.30;;;;;;;;;;5058659;28;20042;-76
2021/08/26 13:37:12;;;;;;;0.25;0.25;;;;;;;;;;5026778;28;20591;-76
2021/08/26 13:39:41;;;;;;;0.20;0.20;;;;;;;;;;5026877;28;20057;-76
2021/08/26 13:42:08;;;;;;;0.38;0.30;;;;;;;;;;5025366;28;20030;-76
2021/08/26 13:44:35;;;;;;;1.35;0.30;;;;;;;;;;5008777;28;20048;-76
2021/08/26 13:47:01;;;;;;;0.40;0.30;;;;;;;;;;5050177;28;20429;-76
2021/08/26 13:49:28;;;;;;;0.28;0.28;;;;;;;;;;5016479;28;20045;-76
2021/08/26 13:51:55;;;;;;;0.30;0.30;;;;;;;;;;5020687;28;20092;-77
2021/08/26 13:54:22;;;;;;;1.45;0.30;;;;;;;;;;5025359;28;20061;-77
2021/08/26 13:56:49;;;;;;;1.65;0.30;;;;;;;;;;5026786;28;20549;-77
2021/08/26 13:59:16;;;;;;;0.20;0.20;;;;;;;;;;5026345;28;20099;-77
2021/08/26 14:01:43;;;;;;;0.22;0.20;;;;;;;;;;5026767;28;20041;-77
2021/08/26 14:04:10;;;;;;;2.33;0.20;;;;;;;;;;5025899;28;20076;-77
2021/08/26 14:06:37;;;;;;;0.40;0.40;;;;;;;;;;5025483;28;20135;-77
2021/08/26 14:09:04;;;;;;;1.55;0.30;;;;;;;;;;5028668;28;20029;-77
2021/08/26 14:11:31;;;;;;;1.17;0.30;;;;;;;;;;5027167;28;20041;-77
2021/08/26 14:13:58;;;;;;;0.65;0.30;;;;;;;;;;5043640;28;20061;-77
2021/08/26 14:16:25;;;;;;;0.98;0.30;;;;;;;;;;5013175;28;20679;-77
2021/08/26 14:18:51;;;;;;;0.20;0.20;;;;;;;;;;5028858;28;20046;-77
2021/08/26 14:21:18;;;;;;;0.30;0.30;;;;;;;;;;5032827;28;20103;-77
2021/08/26 14:23:45;;;;;;;1.27;0.28;;;;;;;;;;5029062;28;20282;-77
2021/08/26 14:26:11;;;;;;;1.10;0.20;;;;;;;;;;5032696;28;20046;-77
2021/08/26 14:28:38;;;;;;;0.30;0.30;;;;;;;;;;5028024;28;20091;-77
2021/08/26 14:31:05;;;;;;;6.03;0.38;;;;;;;;;;5022845;28;20084;-77
2021/08/26 14:33:31;;;;;;;0.93;0.20;;;;;;;;;;5025414;28;20040;-76
2021/08/26 14:35:58;;;;;;;0.30;0.30;;;;;;;;;;5022761;28;20128;-76
2021/08/26 14:38:24;;;;;;;0.38;0.30;;;;;;;;;;5031388;28;20063;-76
2021/08/26 14:40:51;;;;;;;0.20;0.20;;;;;;;;;;5061361;28;20465;-76
2021/08/26 14:43:18;;;;;;;0.20;0.20;;;;;;;;;;5026442;28;20069;-76
2021/08/26 14:45:44;;;;;;;0.30;0.30;;;;;;;;;;5032396;28;20472;-76
2021/08/26 14:48:11;;;;;;;2.60;0.30;;;;;;;;;;5044737;28;20477;-76
2021/08/26 14:50:38;;;;;;;0.30;0.30;;;;;;;;;;5010989;28;20387;-76
2021/08/26 14:53:05;;;;;;;0.20;0.20;;;;;;;;;;5030150;28;20029;-76
2021/08/26 14:55:33;;;;;;;0.30;0.20;;;;;;;;;;5028600;28;20068;-76